createdAt,value
2022-12-12T00:00:26.648Z,16.38
2022-12-12T00:02:58.275Z,16.35
2022-12-12T00:05:28.498Z,16.35
2022-12-12T00:07:58.880Z,16.40
2022-12-12T00:10:28.566Z,16.26
2022-12-12T00:12:58.157Z,16.38
2022-12-12T00:15:29.061Z,16.42
2022-12-12T00:17:58.814Z,16.47
2022-12-12T00:20:28.470Z,16.40
2022-12-12T00:22:58.058Z,16.34
2022-12-12T00:25:27.658Z,16.38
2022-12-12T00:27:57.251Z,16.37
2022-12-12T00:30:26.957Z,16.37
2022-12-12T00:32:56.510Z,16.30
2022-12-12T00:35:26.423Z,16.03
2022-12-12T00:37:56.025Z,16.18
2022-12-12T00:40:25.686Z,16.14
2022-12-12T00:42:55.301Z,16.16
2022-12-12T00:45:24.586Z,16.08
2022-12-12T00:47:54.501Z,16.09
2022-12-12T00:50:24.045Z,16.04
2022-12-12T00:52:53.747Z,16.01
2022-12-12T00:55:23.406Z,16.08
2022-12-12T00:57:53.299Z,15.99
2022-12-12T01:00:24.006Z,16.05
2022-12-12T01:02:53.886Z,16.07
2022-12-12T01:05:24.331Z,16.05
2022-12-12T01:07:55.150Z,16.06
2022-12-12T01:10:25.113Z,16.05
2022-12-12T01:12:54.830Z,15.98
2022-12-12T01:15:24.390Z,16.02
2022-12-12T01:17:55.025Z,15.97
2022-12-12T01:20:29.070Z,15.99
2022-12-12T01:22:59.260Z,15.82
2022-12-12T01:25:28.732Z,15.88
2022-12-12T01:27:58.223Z,15.86
2022-12-12T01:30:31.026Z,15.81
2022-12-12T01:33:00.685Z,15.82
2022-12-12T01:35:31.966Z,15.84
2022-12-12T01:38:01.999Z,15.70
2022-12-12T01:40:32.970Z,15.79
2022-12-12T01:43:02.529Z,15.70
2022-12-12T01:46:13.683Z,15.99
2022-12-12T01:49:02.129Z,16.04
2022-12-12T01:51:32.623Z,15.83
2022-12-12T01:54:17.243Z,15.82
2022-12-12T01:56:52.347Z,15.87
2022-12-12T01:59:24.057Z,15.80
2022-12-12T02:01:55.320Z,15.72
2022-12-12T02:04:27.137Z,15.74
2022-12-12T02:06:57.889Z,15.66
2022-12-12T02:09:31.035Z,15.64
2022-12-12T02:12:00.795Z,15.58
2022-12-12T02:14:53.403Z,15.78
2022-12-12T02:17:52.699Z,15.75
2022-12-12T02:20:37.069Z,15.73
2022-12-12T02:23:32.511Z,15.70
2022-12-12T02:26:09.416Z,15.60
2022-12-12T02:29:06.716Z,15.80
2022-12-12T02:31:42.364Z,15.70
2022-12-12T02:34:27.846Z,15.84
2022-12-12T02:37:00.928Z,15.72
2022-12-12T02:40:20.921Z,15.99
2022-12-12T02:43:13.833Z,16.01
2022-12-12T02:45:47.127Z,15.95
2022-12-12T02:48:30.737Z,16.05
2022-12-12T02:51:04.372Z,16.08
2022-12-12T02:53:34.765Z,16.12
2022-12-12T02:56:07.648Z,16.19
2022-12-12T02:58:40.466Z,16.29
2022-12-12T03:01:40.937Z,16.48
2022-12-12T03:04:54.500Z,16.53
2022-12-12T03:07:49.277Z,16.41
2022-12-12T03:10:28.085Z,16.45
2022-12-12T03:13:19.767Z,16.67
2022-12-12T03:16:15.949Z,16.82
2022-12-12T03:18:57.436Z,16.89
2022-12-12T03:22:25.710Z,17.01
2022-12-12T03:25:05.550Z,16.95
2022-12-12T03:27:55.902Z,17.03
2022-12-12T03:30:25.905Z,17.02
2022-12-12T03:33:08.585Z,17.10
2022-12-12T03:35:40.174Z,17.32
2022-12-12T03:38:15.723Z,17.18
2022-12-12T03:40:50.532Z,17.47
2022-12-12T03:43:33.632Z,17.50
2022-12-12T03:46:23.704Z,17.53
2022-12-12T03:49:03.051Z,17.41
2022-12-12T03:51:37.965Z,17.53
2022-12-12T03:54:54.994Z,17.58
2022-12-12T03:57:34.377Z,17.59
2022-12-12T04:00:08.940Z,17.75
2022-12-12T04:03:03.336Z,17.93
2022-12-12T04:06:26.728Z,18.06
2022-12-12T04:09:23.299Z,17.98
2022-12-12T04:12:18.065Z,17.88
2022-12-12T04:15:06.046Z,18.18
2022-12-12T04:17:58.662Z,18.19
2022-12-12T04:20:55.359Z,18.32
2022-12-12T04:23:35.911Z,18.01
2022-12-12T04:26:29.721Z,18.19
2022-12-12T04:29:31.451Z,18.62
2022-12-12T04:32:15.513Z,18.64
2022-12-12T04:35:03.461Z,18.57
2022-12-12T04:37:40.596Z,18.93
2022-12-12T04:40:14.570Z,18.95
2022-12-12T04:42:55.108Z,18.94
2022-12-12T04:45:30.522Z,18.84
2022-12-12T04:48:02.728Z,18.91
2022-12-12T04:50:34.676Z,18.91
2022-12-12T04:53:18.411Z,18.86
2022-12-12T04:55:58.148Z,18.97
2022-12-12T04:58:29.111Z,19.15
2022-12-12T05:01:08.864Z,19.05
2022-12-12T05:03:44.941Z,19.16
2022-12-12T05:06:18.103Z,19.24
2022-12-12T05:08:55.004Z,19.26
2022-12-12T05:11:24.897Z,19.45
2022-12-12T05:13:54.714Z,19.45
2022-12-12T05:16:44.872Z,19.59
2022-12-12T05:19:15.146Z,19.75
2022-12-12T05:21:44.872Z,19.72
2022-12-12T05:24:14.481Z,19.96
2022-12-12T05:26:44.380Z,19.65
2022-12-12T05:29:14.882Z,19.84
2022-12-12T05:31:44.693Z,19.96
2022-12-12T05:34:14.016Z,20.05
2022-12-12T05:36:44.369Z,20.04
2022-12-12T05:39:13.932Z,20.16
2022-12-12T05:41:43.916Z,20.13
2022-12-12T05:44:13.283Z,20.38
2022-12-12T05:46:42.971Z,20.23
2022-12-12T05:49:12.615Z,20.45
2022-12-12T05:51:44.323Z,20.42
2022-12-12T05:54:15.329Z,20.54
2022-12-12T05:56:45.307Z,20.64
2022-12-12T05:59:16.223Z,20.64
2022-12-12T06:01:46.466Z,20.76
2022-12-12T06:04:17.087Z,20.85
2022-12-12T06:06:48.315Z,20.83
2022-12-12T06:09:17.967Z,20.77
2022-12-12T06:11:47.650Z,20.94
2022-12-12T06:14:17.858Z,21.23
2022-12-12T06:16:47.505Z,21.17
2022-12-12T06:19:17.306Z,21.42
2022-12-12T06:21:47.873Z,21.35
2022-12-12T06:24:18.340Z,21.60
2022-12-12T06:26:52.428Z,21.69
2022-12-12T06:29:22.585Z,21.60
2022-12-12T06:31:52.323Z,21.72
2022-12-12T06:34:21.977Z,21.70
2022-12-12T06:36:51.774Z,21.84
2022-12-12T06:39:21.518Z,21.84
2022-12-12T06:41:51.174Z,21.77
2022-12-12T06:44:20.802Z,21.97
2022-12-12T06:46:50.450Z,22.13
2022-12-12T06:49:20.509Z,22.10
2022-12-12T06:51:50.341Z,22.08
2022-12-12T06:54:20.894Z,22.35
2022-12-12T06:56:50.764Z,22.32
2022-12-12T06:59:20.927Z,22.27
2022-12-12T07:01:50.855Z,22.26
2022-12-12T07:04:21.757Z,22.61
2022-12-12T07:06:51.802Z,22.52
2022-12-12T07:09:22.151Z,22.50
2022-12-12T07:11:51.886Z,22.67
2022-12-12T07:14:24.557Z,22.54
2022-12-12T07:16:54.248Z,22.67
2022-12-12T07:19:24.448Z,22.83
2022-12-12T07:21:54.210Z,22.86
2022-12-12T07:24:23.813Z,22.90
2022-12-12T07:26:53.933Z,22.86
2022-12-12T07:29:23.715Z,23.00
2022-12-12T07:31:53.060Z,23.00
2022-12-12T07:34:24.730Z,23.07
2022-12-12T07:37:00.791Z,23.19
2022-12-12T07:42:35.754Z,23.15
2022-12-12T07:45:05.824Z,23.24
2022-12-12T07:47:36.253Z,23.20
2022-12-12T07:50:07.812Z,23.24
2022-12-12T07:52:38.545Z,23.32
2022-12-12T07:55:08.834Z,23.54
2022-12-12T07:57:39.305Z,23.63
2022-12-12T08:00:11.923Z,23.64
2022-12-12T08:02:42.684Z,23.51
2022-12-12T08:05:12.948Z,23.54
2022-12-12T08:07:43.764Z,23.67
2022-12-12T08:10:13.449Z,23.65
2022-12-12T08:12:43.020Z,23.80
2022-12-12T08:15:18.564Z,24.03
2022-12-12T08:17:49.047Z,23.97
2022-12-12T08:20:18.926Z,23.84
2022-12-12T08:22:48.558Z,23.75
2022-12-12T08:25:18.966Z,23.95
2022-12-12T08:27:48.640Z,23.81
2022-12-12T08:30:18.048Z,24.00
2022-12-12T08:32:47.950Z,23.96
2022-12-12T08:35:17.857Z,24.03
2022-12-12T08:37:47.611Z,23.89
2022-12-12T08:40:17.595Z,24.05
2022-12-12T08:42:47.697Z,24.08
2022-12-12T08:45:18.151Z,24.11
2022-12-12T08:47:48.043Z,24.20
2022-12-12T08:50:18.628Z,24.19
2022-12-12T08:52:48.316Z,24.13
2022-12-12T08:55:19.092Z,24.18
2022-12-12T08:57:49.241Z,24.10
2022-12-12T09:00:19.509Z,24.19
2022-12-12T09:02:49.356Z,24.30
2022-12-12T09:05:19.145Z,24.09
2022-12-12T09:07:49.124Z,24.17
2022-12-12T09:10:19.592Z,24.20
2022-12-12T09:12:49.747Z,24.15
2022-12-12T09:15:20.026Z,24.31
2022-12-12T09:17:49.863Z,24.25
2022-12-12T09:20:19.942Z,24.30
2022-12-12T09:22:49.830Z,24.32
2022-12-12T09:25:20.357Z,24.26
2022-12-12T09:27:50.941Z,24.31
2022-12-12T09:30:20.789Z,24.37
2022-12-12T09:32:51.133Z,24.31
2022-12-12T09:35:20.943Z,24.31
2022-12-12T09:37:50.853Z,24.41
2022-12-12T09:40:27.199Z,24.50
2022-12-12T09:42:57.664Z,24.46
2022-12-12T09:45:28.770Z,24.40
2022-12-12T09:48:04.324Z,24.54
2022-12-12T09:50:37.093Z,24.50
2022-12-12T09:53:15.399Z,24.40
2022-12-12T09:56:23.342Z,24.37
2022-12-12T09:58:57.268Z,24.49
2022-12-12T10:01:47.439Z,24.54
2022-12-12T10:04:41.881Z,24.53
2022-12-12T10:07:16.171Z,24.35
2022-12-12T10:09:53.824Z,24.41
2022-12-12T10:12:24.689Z,24.34
2022-12-12T10:15:03.347Z,24.38
2022-12-12T10:17:37.720Z,24.32
2022-12-12T10:20:30.468Z,24.27
2022-12-12T10:23:06.748Z,24.08
2022-12-12T10:25:53.846Z,24.05
2022-12-12T10:28:26.790Z,24.09
2022-12-12T10:31:15.123Z,24.09
2022-12-12T10:33:44.908Z,24.05
2022-12-12T10:36:24.574Z,24.09
2022-12-12T10:38:54.396Z,24.01
2022-12-12T10:41:41.936Z,24.07
2022-12-12T10:44:47.001Z,24.09
2022-12-12T10:47:17.676Z,23.85
2022-12-12T10:49:47.122Z,23.76
2022-12-12T10:52:23.805Z,23.81
2022-12-12T10:54:59.569Z,23.83
2022-12-12T10:57:35.795Z,23.74
2022-12-12T11:00:20.075Z,23.79
2022-12-12T11:02:50.559Z,23.64
2022-12-12T11:05:36.908Z,23.81
2022-12-12T11:08:31.562Z,23.75
2022-12-12T11:11:06.898Z,23.61
2022-12-12T11:13:48.820Z,23.60
2022-12-12T11:16:30.178Z,23.55
2022-12-12T11:19:09.234Z,23.46
2022-12-12T11:21:40.583Z,23.30
2022-12-12T11:24:16.180Z,23.33
2022-12-12T11:27:07.852Z,23.32
2022-12-12T11:29:51.826Z,23.23
2022-12-12T11:32:27.507Z,23.12
2022-12-12T11:35:22.932Z,23.19
2022-12-12T11:38:18.871Z,23.08
2022-12-12T11:41:10.979Z,23.06
2022-12-12T11:43:51.179Z,22.99
2022-12-12T11:46:26.083Z,22.91
2022-12-12T11:48:55.755Z,22.76
2022-12-12T11:51:39.617Z,22.81
2022-12-12T11:54:14.797Z,22.69
2022-12-12T11:56:52.335Z,22.67
2022-12-12T11:59:46.367Z,22.67
2022-12-12T12:02:51.789Z,22.58
2022-12-12T12:05:33.317Z,22.39
2022-12-12T12:08:32.974Z,22.39
2022-12-12T12:11:03.028Z,22.24
2022-12-12T12:13:53.069Z,22.24
2022-12-12T12:16:50.371Z,22.33
2022-12-12T12:19:49.038Z,22.27
2022-12-12T12:22:27.475Z,22.09
2022-12-12T12:25:09.359Z,22.04
2022-12-12T12:28:05.273Z,22.14
2022-12-12T12:31:10.560Z,22.10
2022-12-12T12:33:55.933Z,22.05
2022-12-12T12:36:41.642Z,22.01
2022-12-12T12:39:30.067Z,22.00
2022-12-12T12:42:11.222Z,21.87
2022-12-12T12:44:56.999Z,21.82
2022-12-12T12:47:29.896Z,21.74
2022-12-12T12:50:30.344Z,21.79
2022-12-12T12:53:18.567Z,21.59
2022-12-12T12:55:52.557Z,21.61
2022-12-12T12:58:32.770Z,21.64
2022-12-12T13:01:08.299Z,21.58
2022-12-12T13:03:49.699Z,21.57
2022-12-12T13:06:45.960Z,21.60
2022-12-12T13:09:37.342Z,21.51
2022-12-12T13:12:45.225Z,21.51
2022-12-12T13:15:42.466Z,21.49
2022-12-12T13:18:18.055Z,21.39
2022-12-12T13:21:22.141Z,21.44
2022-12-12T13:24:19.222Z,21.36
2022-12-12T13:27:24.078Z,21.36
2022-12-12T13:30:08.356Z,21.35
2022-12-12T13:32:55.216Z,21.28
2022-12-12T13:35:35.219Z,21.25
2022-12-12T13:38:06.355Z,21.13
2022-12-12T13:40:44.822Z,21.16
2022-12-12T13:43:47.945Z,21.24
2022-12-12T13:46:21.765Z,21.11
2022-12-12T13:49:15.595Z,21.10
2022-12-12T13:51:46.901Z,20.98
2022-12-12T13:54:16.813Z,20.92
2022-12-12T13:57:08.250Z,21.05
2022-12-12T13:59:57.840Z,21.03
2022-12-12T14:02:34.304Z,21.01
2022-12-12T14:05:11.919Z,21.03
2022-12-12T14:07:53.688Z,20.97
2022-12-12T14:10:41.135Z,20.97
2022-12-12T14:13:29.398Z,20.96
2022-12-12T14:16:16.923Z,20.91
2022-12-12T14:18:52.811Z,20.93
2022-12-12T14:21:37.256Z,20.91
2022-12-12T14:24:32.542Z,20.95
2022-12-12T14:27:07.138Z,20.86
2022-12-12T14:29:45.021Z,20.90
2022-12-12T14:32:17.507Z,20.70
2022-12-12T14:35:11.469Z,20.88
2022-12-12T14:37:53.236Z,20.75
2022-12-12T14:40:40.964Z,20.84
2022-12-12T14:43:23.669Z,20.84
2022-12-12T14:45:53.461Z,20.65
2022-12-12T14:48:34.379Z,20.78
2022-12-12T14:51:30.170Z,20.79
2022-12-12T14:54:01.846Z,20.68
2022-12-12T14:56:52.581Z,20.76
2022-12-12T14:59:25.067Z,20.56
2022-12-12T15:01:58.487Z,20.63
2022-12-12T15:04:30.149Z,20.55
2022-12-12T15:07:01.337Z,20.49
2022-12-12T15:09:39.913Z,20.56
2022-12-12T15:12:12.784Z,20.54
2022-12-12T15:15:02.771Z,20.58
2022-12-12T15:17:38.189Z,20.46
2022-12-12T15:20:16.821Z,20.47
2022-12-12T15:23:03.674Z,20.55
2022-12-12T15:25:56.907Z,20.56
2022-12-12T15:28:27.888Z,20.34
2022-12-12T15:30:58.264Z,20.25
2022-12-12T15:33:30.031Z,20.20
2022-12-12T15:36:08.409Z,20.12
2022-12-12T15:38:39.289Z,20.02
2022-12-12T15:41:13.773Z,20.10
2022-12-12T15:43:45.908Z,19.94
2022-12-12T15:46:18.564Z,19.94
2022-12-12T15:48:51.131Z,19.79
2022-12-12T15:51:25.334Z,19.82
2022-12-12T15:53:57.991Z,19.77
2022-12-12T15:56:32.253Z,19.86
2022-12-12T15:59:11.099Z,19.72
2022-12-12T16:01:41.557Z,19.76
2022-12-12T16:04:11.550Z,19.72
2022-12-12T16:06:47.704Z,19.83
2022-12-12T16:09:26.597Z,19.83
2022-12-12T16:11:58.449Z,19.71
2022-12-12T16:14:42.073Z,19.63
2022-12-12T16:17:26.620Z,19.65
2022-12-12T16:20:01.764Z,19.55
2022-12-12T16:22:43.940Z,19.57
2022-12-12T16:25:28.058Z,19.59
2022-12-12T16:28:07.252Z,19.48
2022-12-12T16:30:39.430Z,19.54
2022-12-12T16:33:24.285Z,19.66
2022-12-12T16:35:54.869Z,19.56
2022-12-12T16:38:25.555Z,19.52
2022-12-12T16:40:57.117Z,19.53
2022-12-12T16:43:30.570Z,19.59
2022-12-12T16:46:02.041Z,19.57
2022-12-12T16:48:43.275Z,19.72
2022-12-12T16:51:20.210Z,19.69
2022-12-12T16:53:50.638Z,19.54
2022-12-12T16:56:22.872Z,19.63
2022-12-12T16:58:54.790Z,19.63
2022-12-12T17:01:28.057Z,19.63
2022-12-12T17:03:59.207Z,19.60
2022-12-12T17:06:30.040Z,19.66
2022-12-12T17:09:00.215Z,19.64
2022-12-12T17:11:30.077Z,19.68
2022-12-12T17:14:00.115Z,19.68
2022-12-12T17:16:29.784Z,19.63
2022-12-12T17:18:59.779Z,19.62
2022-12-12T17:21:29.371Z,19.61
2022-12-12T17:23:59.131Z,19.57
2022-12-12T17:26:29.064Z,19.50
2022-12-12T17:28:58.736Z,19.51
2022-12-12T17:31:28.354Z,19.46
2022-12-12T17:33:58.239Z,19.44
2022-12-12T17:36:27.880Z,19.42
2022-12-12T17:38:59.031Z,19.40
2022-12-12T17:41:29.315Z,19.37
2022-12-12T17:44:01.212Z,19.39
2022-12-12T17:46:31.693Z,19.35
2022-12-12T17:49:03.395Z,19.34
2022-12-12T17:51:34.071Z,19.33
2022-12-12T17:54:04.762Z,19.29
2022-12-12T17:56:35.407Z,19.22
2022-12-12T17:59:08.378Z,19.21
2022-12-12T18:01:39.494Z,19.21
2022-12-12T18:04:10.179Z,19.17
2022-12-12T18:06:40.872Z,19.11
2022-12-12T18:09:10.669Z,19.00
2022-12-12T18:11:43.295Z,19.03
2022-12-12T18:14:20.247Z,19.08
2022-12-12T18:16:52.576Z,19.03
2022-12-12T18:19:26.986Z,19.06
2022-12-12T18:22:01.201Z,18.96
2022-12-12T18:24:33.696Z,18.82
2022-12-12T18:27:04.995Z,18.83
2022-12-12T18:29:34.751Z,18.77
2022-12-12T18:32:06.105Z,18.76
2022-12-12T18:34:35.934Z,18.75
2022-12-12T18:37:05.308Z,18.77
2022-12-12T18:39:35.157Z,18.82
2022-12-12T18:42:04.671Z,18.83
2022-12-12T18:44:34.645Z,18.84
2022-12-12T18:47:04.308Z,18.78
2022-12-12T18:49:33.617Z,18.73
2022-12-12T18:52:05.833Z,18.67
2022-12-12T18:54:35.518Z,18.69
2022-12-12T18:57:04.974Z,18.67
2022-12-12T18:59:35.000Z,18.63
2022-12-12T19:02:04.882Z,18.55
2022-12-12T19:04:34.947Z,18.60
2022-12-12T19:07:04.569Z,18.60
2022-12-12T19:09:34.210Z,18.59
2022-12-12T19:12:04.088Z,18.56
2022-12-12T19:14:59.856Z,18.56
2022-12-12T19:17:26.419Z,18.56
2022-12-12T19:19:56.444Z,18.61
2022-12-12T19:25:18.599Z,18.49
2022-12-12T19:27:48.799Z,18.47
2022-12-12T19:30:18.899Z,18.43
2022-12-12T19:32:50.270Z,18.46
2022-12-12T19:35:20.006Z,18.37
2022-12-12T19:37:49.709Z,18.36
2022-12-12T19:40:20.033Z,18.34
2022-12-12T19:42:49.904Z,18.26
2022-12-12T19:45:19.643Z,18.22
2022-12-12T19:47:48.946Z,18.13
2022-12-12T19:50:18.835Z,18.09
2022-12-12T19:52:48.369Z,18.08
2022-12-12T19:55:18.016Z,18.03
2022-12-12T19:57:47.670Z,18.00
2022-12-12T20:00:20.872Z,18.01
2022-12-12T20:02:50.802Z,17.98
2022-12-12T20:05:20.731Z,17.95
2022-12-12T20:07:50.624Z,17.90
2022-12-12T20:10:20.211Z,17.86
2022-12-12T20:12:58.267Z,17.84
2022-12-12T20:15:28.651Z,17.79
2022-12-12T20:18:01.268Z,17.79
2022-12-12T20:20:31.100Z,17.74
2022-12-12T20:23:00.879Z,17.74
2022-12-12T20:25:30.716Z,17.67
2022-12-12T20:28:00.606Z,17.67
2022-12-12T20:30:30.305Z,17.60
2022-12-12T20:32:59.969Z,17.50
2022-12-12T20:35:30.450Z,17.49
2022-12-12T20:38:00.207Z,17.48
2022-12-12T20:40:30.318Z,17.47
2022-12-12T20:43:03.417Z,17.41
2022-12-12T20:45:36.793Z,17.31
2022-12-12T20:48:07.840Z,17.36
2022-12-12T20:50:37.721Z,17.36
2022-12-12T20:53:07.400Z,17.32
2022-12-12T20:55:38.368Z,17.36
2022-12-12T20:58:08.098Z,17.29
2022-12-12T21:00:40.188Z,17.21
2022-12-12T21:03:09.881Z,17.08
2022-12-12T21:05:39.902Z,17.03
2022-12-12T21:08:09.616Z,17.14
2022-12-12T21:10:39.018Z,17.12
2022-12-12T21:13:08.805Z,17.14
2022-12-12T21:15:38.880Z,17.23
2022-12-12T21:18:08.881Z,17.21
2022-12-12T21:20:38.555Z,17.25
2022-12-12T21:23:08.209Z,17.21
2022-12-12T21:25:38.346Z,17.18
2022-12-12T21:28:08.576Z,17.13
2022-12-12T21:30:38.365Z,17.18
2022-12-12T21:33:07.998Z,17.17
2022-12-12T21:35:38.711Z,17.22
2022-12-12T21:38:08.605Z,17.24
2022-12-12T21:40:38.637Z,17.27
2022-12-12T21:43:08.262Z,17.26
2022-12-12T21:45:41.308Z,17.38
2022-12-12T21:48:10.979Z,17.31
2022-12-12T21:50:40.372Z,17.26
2022-12-12T21:53:28.533Z,17.30
2022-12-12T21:56:03.906Z,17.27
2022-12-12T21:58:34.835Z,17.21
2022-12-12T22:01:08.989Z,17.30
2022-12-12T22:03:39.471Z,17.22
2022-12-12T22:06:14.796Z,17.25
2022-12-12T22:08:45.322Z,17.21
2022-12-12T22:11:40.485Z,17.23
2022-12-12T22:14:08.059Z,17.24
2022-12-12T22:16:39.070Z,17.17
2022-12-12T22:19:12.878Z,17.13
2022-12-12T22:21:42.499Z,17.12
2022-12-12T22:24:13.153Z,17.10
2022-12-12T22:26:47.178Z,17.18
2022-12-12T22:29:19.966Z,17.16
2022-12-12T22:31:53.365Z,17.03
2022-12-12T22:34:25.184Z,17.11
2022-12-12T22:36:55.396Z,17.05
2022-12-12T22:39:29.808Z,17.12
2022-12-12T22:41:59.476Z,17.06
2022-12-12T22:44:28.955Z,17.01
2022-12-12T22:46:58.636Z,17.03
2022-12-12T22:49:28.823Z,17.01
2022-12-12T22:51:59.600Z,17.00
2022-12-12T22:54:29.377Z,16.96
2022-12-12T22:56:59.358Z,16.89
2022-12-12T22:59:29.186Z,16.89
2022-12-12T23:01:59.137Z,16.84
2022-12-12T23:04:28.747Z,16.80
2022-12-12T23:06:58.907Z,16.82
2022-12-12T23:09:28.542Z,16.79
2022-12-12T23:11:58.044Z,16.81
2022-12-12T23:14:28.540Z,16.81
2022-12-12T23:16:58.342Z,16.72
2022-12-12T23:19:29.806Z,16.75
2022-12-12T23:21:59.700Z,16.71
2022-12-12T23:24:29.138Z,16.76
2022-12-12T23:26:58.736Z,16.70
2022-12-12T23:29:28.772Z,16.72
2022-12-12T23:31:59.714Z,16.72
2022-12-12T23:34:29.499Z,16.76
2022-12-12T23:36:59.738Z,16.75
2022-12-12T23:39:30.014Z,16.75
2022-12-12T23:41:59.902Z,16.67
2022-12-12T23:44:30.234Z,16.66
2022-12-12T23:46:59.595Z,16.52
2022-12-12T23:49:29.250Z,16.55
2022-12-12T23:52:00.670Z,16.63
2022-12-12T23:54:33.208Z,16.66
2022-12-12T23:57:04.058Z,16.62
2022-12-12T23:59:33.732Z,16.57
